Time;durP1;ratioP1;P1;durP2;ratioP2;P2;SDS_P1;SDS_P2;PMS_P1;PMS_P2;Temp;Humidity;BMP_temperature;BMP_pressure;BME280_temperature;BME280_humidity;BME280_pressure;Samples;Min_cycle;Max_cycle;Signal;HPM_P1;HPM_P2
2022/07/28 00:01:43;;;;;;;4.05;1.50;;;;;;;13.92;70.00;101876.22;5025209;28;20440;-67
2022/07/28 00:04:08;;;;;;;2.15;1.02;;;;;;;13.95;70.08;101883.34;5023624;28;20037;-67
2022/07/28 00:06:34;;;;;;;3.40;1.45;;;;;;;13.93;70.52;101875.22;5024755;28;20750;-66
2022/07/28 00:08:59;;;;;;;2.35;1.48;;;;;;;13.92;69.64;101878.97;5024863;28;20026;-68
2022/07/28 00:11:24;;;;;;;2.50;1.08;;;;;;;13.90;70.29;101874.59;5025610;28;20034;-67
2022/07/28 00:13:50;;;;;;;3.15;1.50;;;;;;;13.87;70.13;101877.53;5029765;28;20129;-68
2022/07/28 00:16:15;;;;;;;4.93;1.58;;;;;;;13.84;69.81;101870.41;5023978;28;20049;-69
2022/07/28 00:18:41;;;;;;;2.75;1.27;;;;;;;13.83;69.65;101876.88;5042990;28;20364;-66
2022/07/28 00:21:06;;;;;;;3.78;1.35;;;;;;;13.80;70.18;101871.59;5047787;28;20033;-67
2022/07/28 00:23:32;;;;;;;2.55;1.10;;;;;;;13.77;69.92;101880.91;5041795;28;20100;-64
2022/07/28 00:25:57;;;;;;;4.07;1.20;;;;;;;13.72;69.55;101883.09;5049036;28;20036;-67
2022/07/28 00:28:23;;;;;;;6.50;1.63;;;;;;;13.68;69.89;101876.06;5043558;28;20346;-66
2022/07/28 00:30:48;;;;;;;4.32;1.40;;;;;;;13.68;69.06;101869.72;5028284;28;20035;-68
2022/07/28 00:33:14;;;;;;;3.13;1.30;;;;;;;13.64;69.83;101877.25;5028105;28;20112;-67
2022/07/28 00:35:39;;;;;;;5.72;1.30;;;;;;;13.58;69.87;101869.50;5026181;28;20056;-67
2022/07/28 00:38:04;;;;;;;3.35;1.20;;;;;;;13.48;69.97;101863.78;5028769;28;20049;-66
2022/07/28 00:43:14;;;;;;;4.78;1.42;;;;;;;13.45;69.97;101874.91;5042802;28;20144;-66
2022/07/28 00:45:39;;;;;;;2.00;1.20;;;;;;;13.41;70.69;101867.03;5027569;28;20026;-66
2022/07/28 00:48:05;;;;;;;6.05;1.42;;;;;;;13.38;70.10;101865.41;5027847;28;20632;-67
2022/07/28 00:50:30;;;;;;;5.25;1.30;;;;;;;13.38;70.27;101868.13;5027578;28;20107;-71
2022/07/28 00:52:57;;;;;;;4.82;1.65;;;;;;;13.36;71.34;101861.00;5028436;28;20145;-66
2022/07/28 00:55:23;;;;;;;5.07;1.50;;;;;;;13.36;70.27;101858.28;5028797;28;20037;-67
2022/07/28 00:57:49;;;;;;;2.50;1.10;;;;;;;13.31;70.77;101847.66;5028237;28;20041;-65
2022/07/28 01:00:14;;;;;;;5.50;1.60;;;;;;;13.31;70.34;101849.50;5028104;28;20473;-66
2022/07/28 01:02:41;;;;;;;3.15;1.40;;;;;;;13.30;70.10;101848.63;5033949;28;20083;-66
2022/07/28 01:05:07;;;;;;;2.25;1.30;;;;;;;13.27;69.95;101852.44;5027455;28;20034;-70
2022/07/28 01:07:44;;;;;;;5.18;1.42;;;;;;;13.24;70.41;101849.94;5027975;28;20400;-67
2022/07/28 01:10:28;;;;;;;2.85;1.50;;;;;;;13.23;69.49;101850.00;5028035;28;20132;-66
2022/07/28 01:13:44;;;;;;;6.10;1.33;;;;;;;13.21;69.75;101849.22;5031141;28;20053;-66
2022/07/28 01:16:10;;;;;;;6.90;1.65;;;;;;;13.13;70.81;101857.06;5007502;28;20151;-67
2022/07/28 01:18:46;;;;;;;4.72;1.23;;;;;;;13.11;70.48;101856.28;5026646;28;20052;-66
2022/07/28 01:21:14;;;;;;;6.25;1.67;;;;;;;12.97;71.25;101847.16;5026491;28;20140;-69
2022/07/28 01:23:51;;;;;;;2.40;1.08;;;;;;;12.99;70.11;101856.13;5010561;28;20116;-67
2022/07/28 01:26:39;;;;;;;6.78;1.98;;;;;;;12.91;72.23;101838.47;5027858;28;20096;-67
2022/07/28 01:29:15;;;;;;;4.15;1.20;;;;;;;12.84;71.43;101840.75;5033197;28;20453;-69
2022/07/28 01:31:58;;;;;;;4.60;1.33;;;;;;;12.80;71.22;101841.94;5039179;28;20115;-66
2022/07/28 01:34:30;;;;;;;3.53;1.17;;;;;;;12.79;71.59;101840.19;5027309;28;20124;-66
2022/07/28 01:37:02;;;;;;;5.03;1.50;;;;;;;12.73;72.06;101846.06;5027493;28;20057;-66
2022/07/28 01:39:31;;;;;;;3.08;1.50;;;;;;;12.72;72.42;101839.69;5027118;28;20120;-66
2022/07/28 01:41:58;;;;;;;2.95;1.20;;;;;;;12.68;72.12;101834.53;5030170;28;20034;-70
2022/07/28 01:44:27;;;;;;;5.30;1.70;;;;;;;12.64;72.10;101836.59;5031984;28;20726;-67
2022/07/28 01:46:53;;;;;;;4.78;1.63;;;;;;;12.60;72.97;101843.25;5027562;28;20453;-66
2022/07/28 01:49:21;;;;;;;3.20;1.60;;;;;;;12.57;72.45;101837.97;5026494;28;20796;-67
2022/07/28 01:51:49;;;;;;;1.33;1.20;;;;;;;12.55;72.44;101837.22;5025537;28;20057;-68
2022/07/28 01:54:16;;;;;;;3.28;1.70;;;;;;;12.48;73.15;101825.78;5041401;28;20141;-68
2022/07/28 01:56:43;;;;;;;2.53;1.60;;;;;;;12.44;73.23;101832.41;5042654;28;20418;-68
2022/07/28 01:59:11;;;;;;;4.32;1.70;;;;;;;12.42;73.33;101830.78;5025086;28;20047;-68
2022/07/28 02:01:41;;;;;;;2.47;1.30;;;;;;;12.40;73.11;101828.16;5026590;28;20029;-67
2022/07/28 02:04:09;;;;;;;3.55;1.40;;;;;;;12.42;73.56;101828.06;5026568;28;20068;-67
2022/07/28 02:06:38;;;;;;;5.60;1.60;;;;;;;12.44;73.02;101824.22;5025143;28;20385;-69
2022/07/28 02:09:05;;;;;;;7.72;1.90;;;;;;;12.47;73.34;101817.72;5027057;28;20490;-67
2022/07/28 02:11:41;;;;;;;7.15;1.83;;;;;;;12.47;73.16;101817.72;5026949;28;20048;-66
2022/07/28 02:14:10;;;;;;;3.22;1.40;;;;;;;12.47;72.98;101817.72;5033236;28;20072;-66
2022/07/28 02:16:40;;;;;;;5.25;1.70;;;;;;;12.43;73.79;101816.16;5025647;28;20095;-67
2022/07/28 02:19:07;;;;;;;6.05;1.60;;;;;;;12.42;73.11;101818.00;5025216;28;20033;-67
2022/07/28 02:21:35;;;;;;;6.80;1.77;;;;;;;12.43;73.12;101818.88;5026228;28;20033;-67
2022/07/28 02:24:00;;;;;;;5.13;2.03;;;;;;;12.40;73.26;101819.97;5026851;28;20100;-66
2022/07/28 02:26:33;;;;;;;5.63;2.25;;;;;;;12.39;73.45;101822.78;5027332;28;20124;-69
2022/07/28 02:29:05;;;;;;;5.57;1.88;;;;;;;12.39;73.68;101814.59;5024960;28;20061;-66
2022/07/28 02:31:42;;;;;;;5.88;1.90;;;;;;;12.34;73.60;101811.28;5040957;28;20430;-68
2022/07/28 02:34:11;;;;;;;3.67;1.77;;;;;;;12.30;73.27;101802.41;5034702;28;20615;-68
2022/07/28 02:36:40;;;;;;;6.60;1.55;;;;;;;12.29;73.50;101808.84;5045568;28;20025;-67
2022/07/28 02:39:25;;;;;;;5.55;1.90;;;;;;;12.29;73.17;101817.03;5046644;28;20722;-66
2022/07/28 02:42:05;;;;;;;2.72;1.70;;;;;;;12.26;73.37;101814.50;5058186;28;20040;-68
2022/07/28 02:44:38;;;;;;;3.45;1.80;;;;;;;12.27;72.69;101820.88;5043168;28;20485;-67
2022/07/28 02:47:07;;;;;;;3.20;1.50;;;;;;;12.24;73.35;101822.78;5037653;28;20041;-66
2022/07/28 02:49:35;;;;;;;4.30;1.85;;;;;;;12.21;72.83;101811.19;5024435;28;20136;-67
2022/07/28 02:52:03;;;;;;;3.28;1.73;;;;;;;12.21;73.39;101819.38;5025761;28;20033;-69
2022/07/28 02:54:31;;;;;;;5.68;1.83;;;;;;;12.17;73.42;101809.63;5025081;28;20076;-67
2022/07/28 02:56:58;;;;;;;3.22;2.20;;;;;;;12.14;73.85;101812.56;5041959;28;20036;-72
2022/07/28 02:59:25;;;;;;;2.95;1.95;;;;;;;12.09;74.59;101818.31;5025543;28;20450;-66
2022/07/28 03:01:52;;;;;;;4.32;1.88;;;;;;;12.08;73.52;101816.56;5025831;28;20037;-65
2022/07/28 03:04:55;;;;;;;3.53;1.90;;;;;;;12.04;74.00;101820.47;5040275;28;20128;-67
2022/07/28 03:07:07;;;;;;;3.80;2.00;;;;;;;12.02;73.88;101811.47;5025301;28;20492;-67
2022/07/28 03:09:44;;;;;;;3.17;2.03;;;;;;;12.04;73.55;101800.50;5025951;28;20018;-66
2022/07/28 03:12:10;;;;;;;5.18;1.98;;;;;;;11.96;75.17;101799.13;5028424;28;20037;-67
2022/07/28 03:14:36;;;;;;;10.85;1.92;;;;;;;11.92;74.24;101805.72;5037714;28;20038;-67
2022/07/28 03:17:02;;;;;;;4.90;1.80;;;;;;;11.92;74.10;101810.31;5031431;28;20875;-66
2022/07/28 03:19:28;;;;;;;5.63;1.92;;;;;;;11.91;73.69;101808.56;5040174;28;20111;-67
2022/07/28 03:21:53;;;;;;;3.00;1.58;;;;;;;11.89;74.41;101805.94;5025959;28;20473;-66
2022/07/28 03:24:22;;;;;;;3.58;1.80;;;;;;;11.87;74.53;101810.59;5025462;28;20033;-68
2022/07/28 03:26:58;;;;;;;5.05;1.90;;;;;;;11.84;74.70;101808.06;5025963;28;20041;-66
2022/07/28 03:29:26;;;;;;;2.72;1.80;;;;;;;11.80;75.24;101828.28;5029940;28;20501;-68
2022/07/28 03:31:55;;;;;;;4.57;1.80;;;;;;;11.78;74.74;101823.91;5039813;28;20026;-67
2022/07/28 03:34:21;;;;;;;7.93;2.58;;;;;;;11.70;75.04;101818.91;5038733;28;20519;-68
2022/07/28 03:36:52;;;;;;;5.15;1.92;;;;;;;11.68;74.28;101818.13;5024906;28;20140;-66
2022/07/28 03:39:19;;;;;;;3.22;1.65;;;;;;;11.65;74.51;101819.19;5025485;28;20045;-67
2022/07/28 03:41:45;;;;;;;4.95;2.20;;;;;;;11.61;74.75;101820.38;5026229;28;20044;-67
2022/07/28 03:44:12;;;;;;;3.55;1.88;;;;;;;11.56;73.98;101816.16;5041681;28;20488;-66
2022/07/28 03:46:44;;;;;;;3.05;1.77;;;;;;;11.50;74.45;101821.00;5025591;28;20033;-68
2022/07/28 03:49:10;;;;;;;4.45;1.88;;;;;;;11.51;73.89;101821.88;5023794;28;20060;-69
2022/07/28 03:51:35;;;;;;;7.70;3.63;;;;;;;11.46;74.81;101815.84;5024898;28;20069;-69
2022/07/28 03:54:00;;;;;;;3.60;1.90;;;;;;;11.43;74.39;101821.50;5027803;28;20064;-66
2022/07/28 03:56:26;;;;;;;3.25;2.00;;;;;;;11.42;74.45;101822.44;5028577;28;20048;-66
2022/07/28 03:58:51;;;;;;;3.75;1.80;;;;;;;11.37;74.67;101814.53;5028686;28;20030;-69
2022/07/28 04:01:17;;;;;;;7.20;1.65;;;;;;;11.35;75.36;101821.06;5029412;28;20076;-67
2022/07/28 04:03:42;;;;;;;5.97;2.25;;;;;;;11.31;75.51;101811.31;5032170;28;20052;-66
2022/07/28 04:06:07;;;;;;;4.28;1.83;;;;;;;11.29;75.23;101816.00;5046416;28;20043;-67
2022/07/28 04:08:33;;;;;;;3.88;2.10;;;;;;;11.19;75.60;101811.09;5037679;28;20103;-67
2022/07/28 04:10:58;;;;;;;3.65;1.73;;;;;;;11.17;75.23;101809.41;5035039;28;20354;-67
2022/07/28 04:13:24;;;;;;;4.18;1.92;;;;;;;11.14;77.00;101813.19;5042276;28;20116;-68
2022/07/28 04:15:49;;;;;;;4.28;1.70;;;;;;;11.14;76.24;101813.19;5033733;28;20025;-66
2022/07/28 04:18:14;;;;;;;3.95;1.70;;;;;;;11.18;75.68;101812.03;5028027;28;20044;-66
2022/07/28 04:20:40;;;;;;;6.65;1.92;;;;;;;11.19;75.97;101818.38;5027602;28;20841;-66
2022/07/28 04:23:05;;;;;;;4.43;1.83;;;;;;;11.16;76.35;101815.84;5040580;28;20025;-68
2022/07/28 04:25:31;;;;;;;3.95;1.90;;;;;;;11.19;76.15;101815.63;5035985;28;20041;-69
2022/07/28 04:27:56;;;;;;;8.75;2.20;;;;;;;11.23;76.02;101809.91;5029400;28;20080;-66
2022/07/28 04:30:23;;;;;;;3.95;1.50;;;;;;;11.26;75.57;101805.28;5037527;28;20021;-68
2022/07/28 04:32:51;;;;;;;3.67;1.58;;;;;;;11.29;76.23;101810.56;5042055;28;20385;-66
2022/07/28 04:35:18;;;;;;;3.97;1.90;;;;;;;11.33;75.81;101809.38;5028070;28;20505;-68
2022/07/28 04:37:45;;;;;;;6.28;1.70;;;;;;;11.36;76.72;101812.78;5032418;28;20172;-66
2022/07/28 04:40:12;;;;;;;6.15;2.72;;;;;;;11.43;76.91;101806.00;5048403;28;20388;-67
2022/07/28 04:42:38;;;;;;;4.32;2.10;;;;;;;11.48;76.04;101811.19;5046311;28;20028;-66
2022/07/28 04:45:05;;;;;;;4.95;1.95;;;;;;;11.50;76.45;101810.09;5032281;28;20051;-67
2022/07/28 04:47:31;;;;;;;2.65;1.60;;;;;;;11.54;75.58;101805.34;5045071;28;20115;-68
2022/07/28 04:49:56;;;;;;;2.72;1.58;;;;;;;11.60;75.25;101807.69;5045992;28;20447;-68
2022/07/28 04:52:22;;;;;;;1.58;1.45;;;;;;;11.65;74.85;101807.41;5048533;28;20067;-69
2022/07/28 04:54:49;;;;;;;5.40;1.50;;;;;;;11.67;75.75;101805.47;5044564;28;20385;-66
2022/07/28 04:57:14;;;;;;;5.65;2.05;;;;;;;11.68;75.38;101805.38;5028575;28;20037;-67
2022/07/28 04:59:40;;;;;;;4.30;1.80;;;;;;;11.71;75.51;101801.59;5027589;28;20558;-67
2022/07/28 05:02:05;;;;;;;4.95;2.00;;;;;;;11.72;75.96;101816.97;5029950;28;20029;-71
2022/07/28 05:04:31;;;;;;;2.85;1.90;;;;;;;11.70;75.50;101805.28;5026811;28;20408;-67
2022/07/28 05:06:57;;;;;;;5.70;2.03;;;;;;;11.73;75.59;101814.16;5027699;28;20147;-70
2022/07/28 05:09:22;;;;;;;4.97;1.50;;;;;;;11.78;75.42;101815.72;5028775;28;20033;-68
2022/07/28 05:11:48;;;;;;;5.70;1.70;;;;;;;11.78;75.96;101807.53;5044285;28;20029;-67
2022/07/28 05:14:13;;;;;;;7.50;1.65;;;;;;;11.83;76.65;101808.16;5034557;28;20041;-68
2022/07/28 05:16:39;;;;;;;7.68;1.90;;;;;;;11.88;75.46;101815.06;5043644;28;20018;-66
2022/07/28 05:19:04;;;;;;;4.35;1.67;;;;;;;11.91;76.33;101814.03;5026769;28;20038;-67
2022/07/28 05:21:30;;;;;;;4.45;2.35;;;;;;;11.93;75.32;101812.94;5042056;28;20026;-67
2022/07/28 05:23:55;;;;;;;6.28;1.98;;;;;;;11.96;75.34;101811.88;5028708;28;20042;-68
2022/07/28 05:26:21;;;;;;;6.82;2.30;;;;;;;12.05;74.81;101811.28;5027678;28;20459;-67
2022/07/28 05:28:46;;;;;;;6.22;2.50;;;;;;;12.10;75.36;101814.59;5027988;28;20029;-67
2022/07/28 05:31:12;;;;;;;7.65;2.38;;;;;;;12.14;76.33;101815.28;5026614;28;20021;-70
2022/07/28 05:33:37;;;;;;;6.63;2.33;;;;;;;12.21;74.99;101811.19;5041488;28;20158;-68
2022/07/28 05:36:03;;;;;;;3.67;1.70;;;;;;;12.29;75.41;101810.72;5026562;28;20544;-68
2022/07/28 05:38:30;;;;;;;6.20;1.98;;;;;;;12.37;74.46;101813.84;5042678;28;20052;-67
2022/07/28 05:40:56;;;;;;;5.00;2.17;;;;;;;12.40;75.40;101808.16;5041601;28;20037;-65
2022/07/28 05:43:21;;;;;;;6.10;2.22;;;;;;;12.45;74.71;101812.38;5029270;28;20403;-66
2022/07/28 05:45:46;;;;;;;3.95;1.90;;;;;;;12.53;74.84;101806.38;5026479;28;20038;-67
2022/07/28 05:48:12;;;;;;;6.63;2.05;;;;;;;12.63;75.88;101810.25;5027337;28;20037;-67
2022/07/28 05:50:38;;;;;;;4.10;2.33;;;;;;;12.76;74.79;101810.34;5029333;28;20029;-67
2022/07/28 05:53:04;;;;;;;5.50;2.25;;;;;;;12.93;74.71;101820.16;5047416;28;20037;-67
2022/07/28 05:55:29;;;;;;;7.45;2.28;;;;;;;13.13;74.37;101810.59;5047381;28;20484;-68
2022/07/28 05:57:57;;;;;;;3.75;2.17;;;;;;;13.32;72.82;101815.72;5037340;28;20045;-69
2022/07/28 06:00:23;;;;;;;6.93;2.35;;;;;;;13.51;72.24;101818.94;5027234;28;20100;-67
2022/07/28 06:02:49;;;;;;;4.57;2.45;;;;;;;13.71;71.52;101815.72;5035808;28;20033;-67
2022/07/28 06:05:19;;;;;;;7.35;2.60;;;;;;;13.90;71.36;101817.16;5043227;28;20033;-69
2022/07/28 06:07:49;;;;;;;4.43;2.45;;;;;;;14.12;71.31;101814.59;5046254;28;20039;-68
2022/07/28 06:10:18;;;;;;;5.82;2.33;;;;;;;14.27;70.13;101819.00;5034811;28;20037;-67
2022/07/28 06:12:46;;;;;;;8.10;2.15;;;;;;;14.40;70.38;101818.94;5035360;28;20041;-70
2022/07/28 06:15:18;;;;;;;4.38;2.10;;;;;;;14.56;68.46;101818.75;5026016;28;20495;-66
2022/07/28 06:17:43;;;;;;;7.03;2.08;;;;;;;14.67;67.73;101815.22;5031602;28;20041;-68
2022/07/28 06:20:10;;;;;;;8.77;2.92;;;;;;;14.72;68.33;101813.00;5025905;28;20087;-67
2022/07/28 06:22:43;;;;;;;6.43;2.63;;;;;;;14.80;67.64;101816.94;5043348;28;20095;-70
2022/07/28 06:25:16;;;;;;;4.05;2.30;;;;;;;14.78;66.75;101812.53;5026237;28;20056;-67
2022/07/28 06:27:44;;;;;;;6.07;1.80;;;;;;;14.82;67.40;101815.94;5027063;28;20428;-68
2022/07/28 06:30:10;;;;;;;7.07;2.00;;;;;;;14.91;66.67;101821.59;5026136;28;20511;-68
2022/07/28 06:32:35;;;;;;;5.10;2.38;;;;;;;15.03;66.58;101817.06;5025811;28;20061;-69
2022/07/28 06:35:01;;;;;;;8.48;2.53;;;;;;;15.10;65.56;101815.59;5024604;28;20389;-69
2022/07/28 06:37:26;;;;;;;4.28;1.80;;;;;;;15.17;65.39;101811.41;5027314;28;20044;-68
2022/07/28 06:39:52;;;;;;;6.15;2.08;;;;;;;15.25;65.45;101803.47;5046551;28;20495;-67
2022/07/28 06:42:17;;;;;;;7.72;2.40;;;;;;;15.30;65.64;101808.59;5046108;28;20072;-67
2022/07/28 06:44:42;;;;;;;4.95;2.13;;;;;;;15.37;64.51;101814.47;5029576;28;20048;-69
2022/07/28 06:47:08;;;;;;;5.72;2.28;;;;;;;15.40;65.56;101817.00;5025946;28;20021;-67
2022/07/28 06:49:33;;;;;;;2.70;1.88;;;;;;;15.52;65.17;101807.81;5042335;28;20048;-68
2022/07/28 06:51:59;;;;;;;4.43;2.08;;;;;;;15.57;64.80;101813.78;5045827;28;20029;-66
2022/07/28 06:54:24;;;;;;;5.25;2.03;;;;;;;15.49;63.46;101817.16;5045087;28;20108;-68
2022/07/28 06:56:50;;;;;;;5.25;2.13;;;;;;;15.50;63.98;101812.53;5042291;28;20443;-66
2022/07/28 06:59:16;;;;;;;6.10;1.98;;;;;;;15.67;64.69;101816.75;5024647;28;20142;-67
2022/07/28 07:01:41;;;;;;;6.20;2.00;;;;;;;15.78;62.73;101827.75;5010879;28;20392;-68
2022/07/28 07:04:07;;;;;;;4.88;2.05;;;;;;;15.79;63.44;101821.25;5029532;28;20029;-67
2022/07/28 07:06:33;;;;;;;4.28;1.90;;;;;;;15.89;62.95;101821.41;5044914;28;20041;-67
2022/07/28 07:08:58;;;;;;;6.40;1.70;;;;;;;15.99;62.20;101817.81;5040377;28;20027;-67
2022/07/28 07:11:25;;;;;;;3.05;1.95;;;;;;;16.08;62.70;101816.19;5045992;28;20075;-68
2022/07/28 07:13:51;;;;;;;7.72;2.42;;;;;;;16.21;63.53;101816.09;5038609;28;20124;-66
2022/07/28 07:16:17;;;;;;;6.75;2.13;;;;;;;16.33;63.24;101809.59;5024484;28;20091;-68
2022/07/28 07:18:42;;;;;;;5.45;1.67;;;;;;;16.45;63.51;101815.97;5026015;28;20030;-67
2022/07/28 07:21:08;;;;;;;12.98;2.17;;;;;;;16.56;61.92;101824.22;5019860;28;20088;-67
2022/07/28 07:23:34;;;;;;;4.25;1.77;;;;;;;16.64;61.23;101820.81;5026283;28;20043;-67
2022/07/28 07:26:00;;;;;;;6.78;1.80;;;;;;;16.77;60.82;101819.69;5025805;28;20392;-68
2022/07/28 07:28:25;;;;;;;5.90;1.80;;;;;;;16.88;61.59;101812.44;5035010;28;20029;-68
2022/07/28 07:30:51;;;;;;;8.95;1.83;;;;;;;16.82;59.77;101819.31;5042037;28;20111;-68
2022/07/28 07:33:16;;;;;;;6.10;2.33;;;;;;;16.64;61.41;101813.44;5040622;28;20112;-66
2022/07/28 07:35:42;;;;;;;5.78;1.60;;;;;;;16.63;60.49;101811.69;5040561;28;20037;-69
2022/07/28 07:38:07;;;;;;;5.90;1.83;;;;;;;16.58;61.00;101812.09;5027138;28;20554;-68
2022/07/28 07:40:33;;;;;;;7.28;1.60;;;;;;;16.59;60.70;101804.72;5031484;28;20037;-66
2022/07/28 07:42:58;;;;;;;4.82;1.55;;;;;;;16.61;61.87;101801.84;5038576;28;20453;-67
2022/07/28 07:45:24;;;;;;;5.47;1.90;;;;;;;16.64;60.35;101810.69;5025228;28;20025;-67
2022/07/28 07:47:49;;;;;;;6.18;1.90;;;;;;;16.65;59.44;101804.22;5024585;28;20124;-66
2022/07/28 07:50:14;;;;;;;7.95;1.85;;;;;;;16.67;59.81;101798.59;5026902;28;20492;-68
2022/07/28 07:52:40;;;;;;;9.68;1.85;;;;;;;16.72;60.60;101799.97;5041779;28;20656;-67
2022/07/28 07:55:06;;;;;;;4.65;1.40;;;;;;;16.77;61.26;101797.72;5041031;28;20066;-67
2022/07/28 07:57:31;;;;;;;5.40;1.65;;;;;;;16.88;60.59;101793.19;5041436;28;20045;-68
2022/07/28 07:59:57;;;;;;;6.47;1.70;;;;;;;17.03;61.37;101802.91;5025880;28;20045;-70
2022/07/28 08:02:23;;;;;;;13.43;1.83;;;;;;;17.21;60.41;101795.00;5036703;28;20092;-69
2022/07/28 08:04:48;;;;;;;3.08;1.50;;;;;;;17.49;60.14;101802.63;5023446;28;20108;-68
2022/07/28 08:07:14;;;;;;;5.03;1.52;;;;;;;17.44;58.80;101798.50;5035288;28;20400;-67
2022/07/28 08:09:39;;;;;;;5.70;1.48;;;;;;;17.39;57.28;101787.00;5045404;28;20403;-67
2022/07/28 08:12:05;;;;;;;5.63;1.38;;;;;;;17.46;56.95;101794.63;5037887;28;20127;-67
2022/07/28 08:14:30;;;;;;;6.47;1.40;;;;;;;17.62;56.01;101785.88;5028912;28;20516;-68
2022/07/28 08:16:57;;;;;;;5.72;1.50;;;;;;;17.84;55.24;101788.53;5039821;28;20039;-67
2022/07/28 08:19:23;;;;;;;4.22;1.50;;;;;;;18.36;54.84;101789.38;5041918;28;20041;-66
2022/07/28 08:21:48;;;;;;;6.80;1.58;;;;;;;19.20;55.29;101785.41;5044383;28;20064;-68
2022/07/28 08:24:14;;;;;;;3.78;1.60;;;;;;;19.59;51.65;101791.81;5038728;28;20044;-65
2022/07/28 08:26:39;;;;;;;5.63;1.70;;;;;;;19.69;50.54;101783.56;5025298;28;20045;-67
2022/07/28 08:29:05;;;;;;;3.55;1.20;;;;;;;19.97;51.77;101788.13;5024952;28;20021;-67
2022/07/28 08:31:30;;;;;;;3.08;1.38;;;;;;;20.24;49.41;101792.00;5024180;28;20477;-68
2022/07/28 08:33:57;;;;;;;5.65;1.65;;;;;;;20.60;49.40;101782.81;5032418;28;20048;-66
2022/07/28 08:36:22;;;;;;;5.03;1.42;;;;;;;20.96;47.60;101793.09;5040174;28;20037;-66
2022/07/28 08:38:49;;;;;;;2.15;1.27;;;;;;;21.34;48.73;101786.44;5044023;28;20067;-68
2022/07/28 08:41:31;;;;;;;16.55;2.17;;;;;;;21.61;49.32;101794.66;5044579;28;20030;-68
2022/07/28 08:43:58;;;;;;;4.68;1.60;;;;;;;21.63;45.47;101789.81;5038022;28;20138;-67
2022/07/28 08:46:24;;;;;;;5.88;1.40;;;;;;;21.67;45.58;101783.94;5028418;28;20409;-67
2022/07/28 08:48:50;;;;;;;3.63;1.20;;;;;;;21.77;47.58;101780.03;5028161;28;20056;-68
2022/07/28 08:51:16;;;;;;;5.90;1.50;;;;;;;21.65;45.48;101775.81;5027599;28;20072;-68
2022/07/28 08:53:42;;;;;;;4.82;1.30;;;;;;;21.70;49.20;101775.34;5042475;28;20037;-66
2022/07/28 08:56:12;;;;;;;4.30;1.38;;;;;;;22.45;47.61;101781.22;5028226;28;20489;-66
2022/07/28 08:58:38;;;;;;;9.18;1.77;;;;;;;22.98;45.33;101771.72;5028390;28;20095;-68
2022/07/28 09:01:07;;;;;;;3.60;1.38;;;;;;;23.39;44.52;101769.88;5043092;28;20037;-67
2022/07/28 09:03:33;;;;;;;22.35;2.33;;;;;;;23.59;43.83;101767.59;5033095;28;20661;-67
2022/07/28 09:05:58;;;;;;;5.30;1.30;;;;;;;23.85;44.82;101776.66;5046058;28;20029;-67
2022/07/28 09:08:24;;;;;;;6.60;1.52;;;;;;;24.10;41.37;101771.06;5040908;28;20033;-68
2022/07/28 09:10:49;;;;;;;7.03;1.50;;;;;;;24.11;42.64;101776.47;5047505;28;20414;-67
2022/07/28 09:13:16;;;;;;;5.35;1.42;;;;;;;24.17;41.23;101763.75;5042959;28;20033;-67
2022/07/28 09:15:44;;;;;;;3.78;1.65;;;;;;;23.67;40.57;101762.94;5027246;28;20130;-66
2022/07/28 09:18:14;;;;;;;3.97;1.45;;;;;;;23.74;42.48;101762.28;5027715;28;20103;-66
2022/07/28 09:20:40;;;;;;;3.63;1.52;;;;;;;23.72;41.62;101762.44;5026611;28;20045;-67
2022/07/28 09:23:07;;;;;;;6.10;1.77;;;;;;;23.07;41.30;101748.47;5039996;28;20152;-67
2022/07/28 09:25:33;;;;;;;6.03;1.33;;;;;;;22.84;42.85;101751.00;5047641;28;20041;-67
2022/07/28 09:28:11;;;;;;;3.97;1.27;;;;;;;22.64;43.19;101748.50;5043968;28;20361;-68
2022/07/28 09:30:40;;;;;;;4.45;1.40;;;;;;;22.95;44.63;101753.50;5034529;28;20029;-68
2022/07/28 09:33:19;;;;;;;4.75;1.23;;;;;;;23.43;42.64;101735.16;5043915;28;20040;-68
2022/07/28 09:35:51;;;;;;;3.95;1.45;;;;;;;23.62;42.88;101732.00;5045059;28;20043;-66
2022/07/28 09:38:18;;;;;;;5.95;1.35;;;;;;;24.03;41.89;101728.34;5045180;28;20460;-67
2022/07/28 09:41:07;;;;;;;3.28;1.20;;;;;;;24.09;41.89;101728.47;5045610;28;20143;-67
2022/07/28 09:43:44;;;;;;;6.22;1.52;;;;;;;24.01;43.61;101709.03;5041603;28;20056;-68
2022/07/28 09:46:18;;;;;;;5.82;1.75;;;;;;;23.81;40.64;101711.34;5043421;28;20056;-70
2022/07/28 09:48:49;;;;;;;4.75;1.33;;;;;;;23.43;41.47;101710.16;5039773;28;20120;-66
2022/07/28 09:51:26;;;;;;;5.13;1.40;;;;;;;23.31;42.55;101708.75;5043340;28;20086;-70
2022/07/28 09:54:04;;;;;;;4.93;1.40;;;;;;;23.15;42.00;101704.94;5043793;28;20028;-66
2022/07/28 09:56:30;;;;;;;4.38;1.30;;;;;;;23.69;43.59;101718.34;5037005;28;20033;-67
2022/07/28 09:58:58;;;;;;;2.22;1.10;;;;;;;24.25;42.24;101712.78;5044604;28;20052;-66
2022/07/28 10:01:24;;;;;;;3.88;1.40;;;;;;;24.62;39.26;101718.59;5040922;28;20040;-69
2022/07/28 10:03:53;;;;;;;4.32;1.40;;;;;;;24.85;40.48;101714.94;5021128;28;20039;-67
2022/07/28 10:06:33;;;;;;;4.38;1.42;;;;;;;25.04;39.90;101713.59;5046017;28;20025;-66
2022/07/28 10:09:06;;;;;;;7.47;1.58;;;;;;;25.24;39.32;101714.88;5045391;28;20039;-67
2022/07/28 10:11:31;;;;;;;5.07;1.73;;;;;;;25.03;36.45;101720.22;5039096;28;20511;-71
2022/07/28 10:14:01;;;;;;;5.00;0.98;;;;;;;24.63;37.11;101714.75;5044029;28;20068;-66
2022/07/28 10:16:40;;;;;;;4.47;1.00;;;;;;;24.78;40.69;101711.19;5041427;28;20036;-66
2022/07/28 10:19:06;;;;;;;5.70;1.35;;;;;;;25.19;38.88;101711.78;5040267;28;20373;-65
2022/07/28 10:21:35;;;;;;;4.22;1.23;;;;;;;25.51;40.62;101701.41;5032198;28;20107;-67
2022/07/28 10:24:06;;;;;;;9.10;1.42;;;;;;;25.56;38.37;101708.16;5044911;28;20029;-65
2022/07/28 10:26:36;;;;;;;6.13;1.20;;;;;;;25.67;38.51;101709.63;5043489;28;20136;-67
2022/07/28 10:29:06;;;;;;;10.65;1.20;;;;;;;25.67;37.54;101716.06;5043209;28;20029;-67
2022/07/28 10:31:34;;;;;;;4.18;1.10;;;;;;;25.76;37.49;101702.94;5039337;28;20033;-67
2022/07/28 10:34:02;;;;;;;3.78;1.30;;;;;;;25.99;37.12;101705.66;5041814;28;20059;-69
2022/07/28 10:36:30;;;;;;;2.60;1.00;;;;;;;25.74;36.22;101704.13;5044205;28;20028;-67
2022/07/28 10:39:04;;;;;;;6.53;1.98;;;;;;;25.92;37.72;101701.88;5044371;28;20063;-68
2022/07/28 10:41:37;;;;;;;3.88;1.38;;;;;;;26.29;36.78;101700.94;5046108;28;20040;-68
2022/07/28 10:44:02;;;;;;;5.75;1.33;;;;;;;25.93;34.07;101693.34;5038324;28;20155;-66
2022/07/28 10:46:29;;;;;;;4.72;1.45;;;;;;;25.70;38.61;101698.97;5039628;28;20029;-68
2022/07/28 10:48:55;;;;;;;2.00;1.23;;;;;;;25.68;37.14;101692.69;5041271;28;20040;-68
2022/07/28 10:51:21;;;;;;;6.43;1.13;;;;;;;25.52;35.28;101692.00;5044134;28;20553;-68
2022/07/28 10:54:26;;;;;;;5.43;1.42;;;;;;;25.33;37.81;101694.28;5043388;28;20023;-66
2022/07/28 10:56:54;;;;;;;5.40;1.38;;;;;;;24.77;34.84;101689.97;5032897;28;20060;-68
2022/07/28 10:59:41;;;;;;;4.10;1.13;;;;;;;24.43;37.12;101683.72;5042465;28;20020;-68
2022/07/28 11:02:07;;;;;;;3.80;1.20;;;;;;;25.08;38.98;101685.22;5041408;28;20033;-67
2022/07/28 11:04:47;;;;;;;5.30;1.38;;;;;;;25.38;38.01;101693.72;5041048;28;20037;-66
2022/07/28 11:07:17;;;;;;;5.13;1.38;;;;;;;25.53;34.35;101679.81;5044535;28;20037;-68
2022/07/28 11:09:46;;;;;;;4.03;1.23;;;;;;;25.57;36.13;101686.75;5045784;28;20033;-66
2022/07/28 11:12:14;;;;;;;3.05;0.88;;;;;;;25.75;34.47;101689.16;5041755;28;20024;-70
2022/07/28 11:14:41;;;;;;;1.77;1.00;;;;;;;25.66;33.94;101685.59;5034234;28;20033;-70
2022/07/28 11:17:06;;;;;;;4.25;1.40;;;;;;;25.88;35.11;101686.59;5023886;28;20021;-67
2022/07/28 11:19:43;;;;;;;3.50;1.08;;;;;;;26.42;36.27;101677.91;5024876;28;20029;-67
2022/07/28 11:22:17;;;;;;;3.63;1.40;;;;;;;26.63;36.67;101679.94;5025570;28;20102;-66
2022/07/28 11:24:55;;;;;;;3.60;1.10;;;;;;;26.47;36.29;101667.06;5030376;28;20401;-68
2022/07/28 11:27:39;;;;;;;102.70;7.20;;;;;;;26.52;36.14;101667.34;5043858;28;20086;-66
2022/07/28 11:30:09;;;;;;;40.33;3.25;;;;;;;26.82;33.20;101658.91;5040411;28;20388;-67
2022/07/28 11:32:49;;;;;;;5.10;1.10;;;;;;;27.02;34.66;101667.47;5039518;28;20108;-67